createdAt,value
2023-08-14T00:20:00.693Z,19.10
2023-08-14T00:31:27.134Z,19.20
2023-08-14T00:34:51.780Z,19.10
2023-08-14T00:39:44.083Z,19.10
2023-08-14T01:11:19.883Z,19.00
2023-08-14T01:15:00.457Z,19.10
2023-08-14T01:46:15.252Z,18.70
2023-08-14T01:49:41.678Z,18.60
2023-08-14T01:56:39.242Z,18.70
2023-08-14T02:11:20.310Z,18.60
2023-08-14T02:19:37.554Z,18.50
2023-08-14T02:22:13.884Z,18.50
2023-08-14T02:25:36.616Z,18.50
2023-08-14T02:31:42.912Z,18.50
2023-08-14T02:38:22.940Z,18.40
2023-08-14T03:22:23.032Z,18.20
2023-08-14T04:10:43.025Z,18.10
2023-08-14T04:24:45.994Z,18.00
2023-08-14T04:28:12.325Z,17.90
2023-08-14T04:34:40.921Z,17.90
2023-08-14T04:41:32.815Z,17.80
2023-08-14T04:55:23.982Z,18.00
2023-08-14T05:05:31.114Z,18.20
2023-08-14T05:09:00.359Z,18.00
2023-08-14T05:23:30.300Z,18.10
2023-08-14T05:30:54.370Z,18.20
2023-08-14T05:47:52.991Z,18.40
2023-08-14T05:51:29.348Z,18.50
2023-08-14T05:57:57.515Z,18.70
2023-08-14T06:04:16.726Z,18.80
2023-08-14T06:11:51.942Z,18.90
2023-08-14T06:28:21.603Z,19.30
2023-08-14T07:02:16.807Z,19.90
2023-08-14T07:05:35.332Z,20.10
2023-08-14T07:13:14.867Z,20.30
2023-08-14T07:59:53.609Z,20.90
2023-08-14T08:06:52.014Z,21.20
2023-08-14T08:25:10.269Z,21.60
2023-08-14T08:28:45.663Z,21.70
2023-08-14T08:36:07.372Z,21.90
2023-08-14T08:51:35.688Z,22.30
2023-08-14T08:59:37.531Z,22.50
2023-08-14T09:03:30.845Z,22.80
2023-08-14T09:06:47.551Z,22.90
2023-08-14T09:10:25.621Z,23.00
2023-08-14T09:40:19.999Z,24.40
2023-08-14T09:47:51.887Z,24.70
2023-08-14T09:51:20.972Z,24.90
2023-08-14T09:54:52.566Z,25.10
2023-08-14T10:12:05.564Z,25.60
2023-08-14T19:31:09.512Z,26.10
2023-08-14T19:33:38.093Z,26.00
2023-08-14T19:36:07.239Z,25.90
2023-08-14T19:38:35.822Z,25.90
2023-08-14T19:41:04.434Z,25.80
2023-08-14T19:43:32.793Z,25.70
2023-08-14T19:46:01.683Z,25.70
2023-08-14T19:48:31.580Z,25.70
2023-08-14T19:50:59.736Z,25.70
2023-08-14T19:53:28.086Z,25.60
2023-08-14T19:55:57.315Z,25.50
2023-08-14T19:58:25.893Z,25.50
2023-08-14T20:00:58.909Z,25.40
2023-08-14T20:03:27.648Z,25.40
2023-08-14T20:05:57.467Z,25.30
2023-08-14T20:08:26.630Z,25.30
2023-08-14T20:11:03.335Z,25.30
2023-08-14T20:21:31.544Z,25.00
2023-08-14T20:23:59.774Z,25.00
2023-08-14T20:26:31.771Z,24.90
2023-08-14T20:28:59.797Z,24.90
2023-08-14T20:31:28.184Z,24.80
2023-08-14T20:33:56.296Z,24.80
2023-08-14T20:36:27.500Z,24.70
2023-08-14T20:38:57.413Z,24.70
2023-08-14T20:41:29.237Z,24.50
2023-08-14T20:43:58.014Z,24.30
2023-08-14T20:46:26.504Z,24.10
2023-08-14T20:48:54.948Z,23.90
2023-08-14T20:51:23.622Z,23.90
2023-08-14T20:53:52.213Z,23.80
2023-08-14T20:56:22.196Z,23.70
2023-08-14T20:58:50.719Z,23.60
2023-08-14T21:01:19.508Z,23.30
2023-08-14T21:03:48.185Z,23.00
2023-08-14T21:06:18.783Z,22.90
2023-08-14T21:08:47.280Z,22.80
2023-08-14T21:11:16.388Z,22.70
2023-08-14T21:13:46.592Z,22.70
2023-08-14T21:16:15.086Z,22.60
2023-08-14T21:18:45.238Z,22.50
2023-08-14T21:21:13.470Z,22.50
2023-08-14T21:23:41.681Z,22.40
2023-08-14T21:26:09.766Z,22.30
2023-08-14T21:28:37.810Z,22.40
2023-08-14T21:31:07.278Z,22.40
2023-08-14T21:33:35.496Z,22.40
2023-08-14T21:36:05.432Z,22.40
2023-08-14T21:38:35.487Z,22.30
2023-08-14T21:41:05.269Z,22.40
2023-08-14T21:43:33.667Z,22.30
2023-08-14T21:46:01.889Z,22.30
2023-08-14T21:48:31.428Z,22.30
2023-08-14T21:50:59.710Z,22.30
2023-08-14T21:53:27.887Z,22.40
2023-08-14T21:55:55.976Z,22.40
2023-08-14T21:58:23.961Z,22.40
2023-08-14T22:00:52.070Z,22.40
2023-08-14T22:03:20.303Z,22.50
2023-08-14T22:05:49.818Z,22.50
2023-08-14T22:08:18.096Z,22.50
2023-08-14T22:10:46.201Z,22.50
2023-08-14T22:13:14.464Z,22.50
2023-08-14T22:15:46.557Z,22.60
2023-08-14T22:18:15.483Z,22.60
2023-08-14T22:20:43.718Z,22.60
2023-08-14T22:23:14.029Z,22.70
2023-08-14T22:25:43.977Z,22.70
2023-08-14T22:28:12.026Z,22.70
2023-08-14T22:30:41.601Z,22.60
2023-08-14T22:33:11.810Z,22.60
2023-08-14T22:35:39.948Z,22.60
2023-08-14T22:38:08.028Z,22.60
2023-08-14T22:40:37.654Z,22.50
2023-08-14T22:43:05.966Z,22.60
2023-08-14T22:48:02.380Z,22.50
2023-08-14T22:50:31.315Z,22.50
2023-08-14T22:52:59.455Z,22.40
2023-08-14T22:55:27.654Z,22.40
2023-08-14T22:57:59.380Z,22.40
2023-08-14T23:00:27.392Z,22.40
2023-08-14T23:02:56.440Z,22.40
2023-08-14T23:05:28.220Z,22.30
2023-08-14T23:07:56.323Z,22.30
2023-08-14T23:10:24.456Z,22.20
2023-08-14T23:12:52.558Z,22.20
2023-08-14T23:15:22.164Z,22.10
2023-08-14T23:17:50.365Z,22.10
2023-08-14T23:20:18.695Z,22.00
2023-08-14T23:22:46.904Z,22.10
2023-08-14T23:25:14.939Z,22.00
2023-08-14T23:27:43.024Z,22.00
2023-08-14T23:30:12.140Z,22.00
2023-08-14T23:32:41.843Z,22.00
2023-08-14T23:35:10.529Z,21.90
2023-08-14T23:37:38.750Z,21.90
2023-08-14T23:40:09.172Z,21.90
2023-08-14T23:42:37.519Z,21.80
2023-08-14T23:45:06.498Z,21.70
2023-08-14T23:47:34.839Z,21.70
2023-08-14T23:50:05.589Z,21.60
2023-08-14T23:52:34.110Z,21.60
2023-08-14T23:55:02.795Z,21.50
2023-08-14T23:57:31.059Z,21.60
2023-08-14T23:59:59.263Z,21.40
